Webcam Richtung Westen

Webcam27

Webcam Richtung Norden

Webcam36

Webcam Richtung Osten

Webcam09

Wetter(Würzburg):
120600Z AUTO 22005G06KT 7000 BR BKN005 BKN040 OVC140 02/01 Q1005
		
Thu 12.12.2019, 06:00 UTC

Sichtweite bis zu 7000 m
feuchter Dunst
Wind aus 220° mit 05kt, in Böen bis zu 06kt
unterbrochene Wolkendecke (5-7 Achtel) bei 500 Fuß
unterbrochene Wolkendecke (5-7 Achtel) bei 4000 Fuß
bedeckter Himmel (8 Achtel) bei 14000 Fuß
Temperatur: 2 °C
Taupunkt: 1 °C
QNH: 1005 hPa
                         Heute        Morgen
                         12.12        13.12
--------------------------------------------
Beginn der Dämmerung     06:30        06:31
Sonnenaufgang            07:08        07:09
Sonnenuntergang          15:19        15:19
Ende der Dämmerung       15:57        15:57

Alle Zeiten in UTC